Time;durP1;ratioP1;P1;durP2;ratioP2;P2;SDS_P1;SDS_P2;PMS_P1;PMS_P2;Temp;Humidity;BMP_temperature;BMP_pressure;BME280_temperature;BME280_humidity;BME280_pressure;Samples;Min_cycle;Max_cycle;Signal;HPM_P1;HPM_P2
2021/12/08 00:01:00;;;;;;;5.72;3.15;;;;;;;;;;5023658;28;20029;-72
2021/12/08 00:03:28;;;;;;;1.13;1.08;;;;;;;;;;5029610;28;20634;-72
2021/12/08 00:05:54;;;;;;;1.88;1.75;;;;;;;;;;5037739;28;20025;-72
2021/12/08 00:08:22;;;;;;;3.33;1.65;;;;;;;;;;5037270;28;20036;-72
2021/12/08 00:13:22;;;;;;;1.13;1.13;;;;;;;;;;5032409;28;20029;-71
2021/12/08 00:15:49;;;;;;;2.72;2.53;;;;;;;;;;5025049;28;20384;-71
2021/12/08 00:18:17;;;;;;;3.60;1.70;;;;;;;;;;5026669;28;20032;-72
2021/12/08 00:20:46;;;;;;;4.43;1.48;;;;;;;;;;5033277;28;20394;-71
2021/12/08 00:23:12;;;;;;;1.60;1.50;;;;;;;;;;5026715;28;20080;-72
2021/12/08 00:25:38;;;;;;;0.80;0.80;;;;;;;;;;5034507;28;20102;-72
2021/12/08 00:28:05;;;;;;;0.55;0.55;;;;;;;;;;5026491;28;20464;-72
2021/12/08 00:30:32;;;;;;;4.90;2.05;;;;;;;;;;5040172;28;20550;-71
2021/12/08 00:32:59;;;;;;;0.57;0.57;;;;;;;;;;5029834;28;20033;-72
2021/12/08 00:35:27;;;;;;;0.80;0.80;;;;;;;;;;5034378;28;20491;-71
2021/12/08 00:37:53;;;;;;;1.15;1.08;;;;;;;;;;5031070;28;20029;-71
2021/12/08 00:40:19;;;;;;;0.93;0.93;;;;;;;;;;5021658;28;20035;-71
2021/12/08 00:42:46;;;;;;;2.20;1.95;;;;;;;;;;5020149;28;20424;-71
2021/12/08 00:45:13;;;;;;;5.68;3.47;;;;;;;;;;5034977;28;20434;-71
2021/12/08 00:47:40;;;;;;;2.95;2.58;;;;;;;;;;5030700;28;20033;-71
2021/12/08 00:50:06;;;;;;;1.23;1.13;;;;;;;;;;5036815;28;20033;-71
2021/12/08 00:52:32;;;;;;;1.20;1.20;;;;;;;;;;5024905;28;20120;-71
2021/12/08 00:54:59;;;;;;;2.85;1.15;;;;;;;;;;5027349;28;20053;-71
2021/12/08 00:57:25;;;;;;;2.53;1.45;;;;;;;;;;5035169;28;20036;-71
2021/12/08 00:59:51;;;;;;;0.80;0.68;;;;;;;;;;5024518;28;20862;-71
2021/12/08 01:02:17;;;;;;;10.88;2.70;;;;;;;;;;5027117;28;20033;-71
2021/12/08 01:04:43;;;;;;;1.27;1.17;;;;;;;;;;5031426;28;20063;-71
2021/12/08 01:07:09;;;;;;;1.92;1.83;;;;;;;;;;5029830;28;20399;-72
2021/12/08 01:09:35;;;;;;;2.20;1.58;;;;;;;;;;5025136;28;20030;-72
2021/12/08 01:12:02;;;;;;;3.88;2.58;;;;;;;;;;5025254;28;20127;-71
2021/12/08 01:14:29;;;;;;;3.75;1.88;;;;;;;;;;5031337;28;20104;-71
2021/12/08 01:16:55;;;;;;;0.52;0.52;;;;;;;;;;5029348;28;20026;-71
2021/12/08 01:19:21;;;;;;;1.40;1.30;;;;;;;;;;5031225;28;20021;-71
2021/12/08 01:21:47;;;;;;;0.73;0.60;;;;;;;;;;5037307;28;20120;-71
2021/12/08 01:24:13;;;;;;;1.60;1.50;;;;;;;;;;5024968;28;20143;-71
2021/12/08 01:26:39;;;;;;;1.45;1.35;;;;;;;;;;5029812;28;20119;-71
2021/12/08 01:29:07;;;;;;;3.75;1.45;;;;;;;;;;5031835;28;20040;-71
2021/12/08 01:31:33;;;;;;;3.38;2.65;;;;;;;;;;5034100;28;20033;-71
2021/12/08 01:33:58;;;;;;;4.07;2.78;;;;;;;;;;5044323;28;20036;-72
2021/12/08 01:36:24;;;;;;;2.78;1.80;;;;;;;;;;5038880;28;20030;-71
2021/12/08 01:38:50;;;;;;;16.67;2.35;;;;;;;;;;5029322;28;20040;-72
2021/12/08 01:41:16;;;;;;;3.35;2.42;;;;;;;;;;5032565;28;20041;-72
2021/12/08 01:46:27;;;;;;;0.75;0.75;;;;;;;;;;5033475;28;20055;-71
2021/12/08 01:48:53;;;;;;;0.50;0.50;;;;;;;;;;5040871;28;20026;-72
2021/12/08 01:51:19;;;;;;;2.05;1.95;;;;;;;;;;5041159;28;20472;-71
2021/12/08 01:53:47;;;;;;;1.45;1.15;;;;;;;;;;5022785;28;20021;-71
2021/12/08 01:56:13;;;;;;;2.80;2.28;;;;;;;;;;5037175;28;20435;-71
2021/12/08 01:58:40;;;;;;;5.55;1.88;;;;;;;;;;5026180;28;20029;-72
2021/12/08 02:01:07;;;;;;;1.50;1.10;;;;;;;;;;5022559;28;20037;-71
2021/12/08 02:03:33;;;;;;;1.67;1.58;;;;;;;;;;5029300;28;20214;-71
2021/12/08 02:06:02;;;;;;;1.77;1.60;;;;;;;;;;5022161;28;20037;-72
2021/12/08 02:08:28;;;;;;;2.10;1.38;;;;;;;;;;5020055;28;20048;-71
2021/12/08 02:10:54;;;;;;;1.30;1.08;;;;;;;;;;5018834;28;20026;-72
2021/12/08 02:13:20;;;;;;;0.85;0.85;;;;;;;;;;5028123;28;20360;-71
2021/12/08 02:15:47;;;;;;;2.40;1.40;;;;;;;;;;5025780;28;20597;-71
2021/12/08 02:18:15;;;;;;;1.23;1.13;;;;;;;;;;5031265;28;20395;-71
2021/12/08 02:20:42;;;;;;;0.88;0.88;;;;;;;;;;5039939;28;20325;-72
2021/12/08 02:23:08;;;;;;;5.00;2.92;;;;;;;;;;5029385;28;20053;-72
2021/12/08 02:25:34;;;;;;;1.08;1.02;;;;;;;;;;5027873;28;20036;-71
2021/12/08 02:28:00;;;;;;;0.73;0.65;;;;;;;;;;5030546;28;20033;-72
2021/12/08 02:46:49;;;;;;;0.47;0.47;;;;;;;;;;5026361;28;20076;-71
2021/12/08 02:49:16;;;;;;;8.15;1.42;;;;;;;;;;5039352;28;20025;-71
2021/12/08 02:51:43;;;;;;;0.45;0.35;;;;;;;;;;5027222;28;20032;-72
2021/12/08 02:54:09;;;;;;;2.05;1.55;;;;;;;;;;5042886;28;20037;-71
2021/12/08 02:56:35;;;;;;;3.35;2.30;;;;;;;;;;5027325;28;20030;-71
2021/12/08 02:59:01;;;;;;;8.98;4.30;;;;;;;;;;5028456;28;20025;-72
2021/12/08 03:01:28;;;;;;;0.52;0.52;;;;;;;;;;5041298;28;20116;-71
2021/12/08 03:03:54;;;;;;;0.90;0.90;;;;;;;;;;5044799;28;20038;-71
2021/12/08 03:06:20;;;;;;;0.82;0.82;;;;;;;;;;5030263;28;20029;-71
2021/12/08 03:08:46;;;;;;;2.33;1.25;;;;;;;;;;5026494;28;20037;-71
2021/12/08 03:11:12;;;;;;;1.98;1.88;;;;;;;;;;5032312;28;20049;-71
2021/12/08 03:13:44;;;;;;;0.80;0.80;;;;;;;;;;5025849;28;20780;-71
2021/12/08 03:16:10;;;;;;;5.45;2.00;;;;;;;;;;5030159;28;20040;-72
2021/12/08 03:18:40;;;;;;;2.70;2.15;;;;;;;;;;5031043;28;20036;-71
2021/12/08 03:21:08;;;;;;;0.85;0.85;;;;;;;;;;5031564;28;20041;-71
2021/12/08 03:24:24;;;;;;;1.23;1.20;;;;;;;;;;5030328;28;20274;-72
2021/12/08 03:26:30;;;;;;;0.35;0.35;;;;;;;;;;5033517;28;20033;-72
2021/12/08 03:29:06;;;;;;;1.77;1.67;;;;;;;;;;5034767;28;20057;-71
2021/12/08 03:31:39;;;;;;;0.20;0.20;;;;;;;;;;5043764;28;20068;-71
2021/12/08 03:34:05;;;;;;;4.32;1.95;;;;;;;;;;5032667;28;20025;-72
2021/12/08 03:36:31;;;;;;;1.58;1.48;;;;;;;;;;5040806;28;20021;-71
2021/12/08 03:38:57;;;;;;;0.63;0.63;;;;;;;;;;5034602;28;20025;-71
2021/12/08 03:41:23;;;;;;;1.23;1.17;;;;;;;;;;5031412;28;20028;-73
2021/12/08 03:43:50;;;;;;;0.40;0.40;;;;;;;;;;5031466;28;20282;-71
2021/12/08 03:46:17;;;;;;;0.52;0.52;;;;;;;;;;5031100;28;20048;-72
2021/12/08 03:48:47;;;;;;;1.73;1.15;;;;;;;;;;5024565;28;20029;-72
2021/12/08 03:51:13;;;;;;;0.30;0.30;;;;;;;;;;5028990;28;20040;-72
2021/12/08 03:53:39;;;;;;;1.77;1.67;;;;;;;;;;5025262;28;20037;-72
2021/12/08 03:56:05;;;;;;;2.40;1.38;;;;;;;;;;5041405;28;20091;-72
2021/12/08 03:58:31;;;;;;;3.22;2.35;;;;;;;;;;5039983;28;20049;-72
2021/12/08 04:00:58;;;;;;;1.63;1.52;;;;;;;;;;5029475;28;20033;-72
2021/12/08 04:03:26;;;;;;;0.52;0.52;;;;;;;;;;5036787;28;20079;-72
2021/12/08 04:05:55;;;;;;;0.28;0.28;;;;;;;;;;5025452;28;20078;-72
2021/12/08 04:08:30;;;;;;;1.00;1.00;;;;;;;;;;5039831;28;20028;-72
2021/12/08 04:10:57;;;;;;;1.65;1.55;;;;;;;;;;5028142;28;20029;-71
2021/12/08 04:13:26;;;;;;;1.60;1.40;;;;;;;;;;5043567;28;20090;-72
2021/12/08 04:15:52;;;;;;;13.13;1.13;;;;;;;;;;5028783;28;20477;-71
2021/12/08 04:18:18;;;;;;;3.08;2.38;;;;;;;;;;5027646;28;20106;-72
2021/12/08 04:20:53;;;;;;;0.20;0.20;;;;;;;;;;5022662;28;20395;-72
2021/12/08 04:23:20;;;;;;;4.05;1.58;;;;;;;;;;5029606;28;20693;-72
2021/12/08 04:25:49;;;;;;;2.20;1.23;;;;;;;;;;5038206;28;20037;-72
2021/12/08 04:28:17;;;;;;;2.42;2.25;;;;;;;;;;5032049;28;20033;-72
2021/12/08 04:30:55;;;;;;;5.38;0.80;;;;;;;;;;5028000;28;20037;-71
2021/12/08 04:33:21;;;;;;;0.98;0.98;;;;;;;;;;5033812;28;20053;-72
2021/12/08 04:35:48;;;;;;;2.35;2.15;;;;;;;;;;5034066;28;20029;-72
2021/12/08 04:38:19;;;;;;;2.10;1.75;;;;;;;;;;5039081;28;20029;-72
2021/12/08 04:41:01;;;;;;;0.45;0.45;;;;;;;;;;5034706;28;20036;-71
2021/12/08 04:43:55;;;;;;;;;;;;;;;;;;5039786;28;20029;-72
2021/12/08 04:46:28;;;;;;;3.58;0.85;;;;;;;;;;5033744;28;19913;-72
2021/12/08 04:49:20;;;;;;;2.33;1.75;;;;;;;;;;5030640;28;20300;-72
2021/12/08 04:52:04;;;;;;;0.68;0.65;;;;;;;;;;5036837;28;20037;-72
2021/12/08 05:00:44;;;;;;;4.85;2.08;;;;;;;;;;5030859;28;20510;-71
2021/12/08 05:03:42;;;;;;;2.90;2.70;;;;;;;;;;5028407;28;20566;-72
2021/12/08 05:08:46;;;;;;;0.43;0.43;;;;;;;;;;5024899;28;20033;-72
2021/12/08 05:11:20;;;;;;;10.05;1.20;;;;;;;;;;5029289;28;20037;-72
2021/12/08 05:13:48;;;;;;;2.03;1.92;;;;;;;;;;5030410;28;20112;-72
2021/12/08 05:16:14;;;;;;;0.65;0.65;;;;;;;;;;5035074;28;20048;-71
2021/12/08 05:18:42;;;;;;;1.48;0.57;;;;;;;;;;5027574;28;20022;-71
2021/12/08 05:21:11;;;;;;;0.90;0.90;;;;;;;;;;5024446;28;20026;-72
2021/12/08 05:23:42;;;;;;;0.85;0.85;;;;;;;;;;5036077;28;20126;-72
2021/12/08 05:26:11;;;;;;;2.65;1.48;;;;;;;;;;5029853;28;20033;-72
2021/12/08 05:28:37;;;;;;;1.55;0.77;;;;;;;;;;5026861;28;20029;-71
2021/12/08 05:31:10;;;;;;;5.63;2.38;;;;;;;;;;5034126;28;20110;-71
2021/12/08 05:33:36;;;;;;;1.35;1.25;;;;;;;;;;5038415;28;20017;-71
2021/12/08 05:36:03;;;;;;;6.00;1.42;;;;;;;;;;5031818;28;20036;-71
2021/12/08 05:38:29;;;;;;;1.98;1.02;;;;;;;;;;5030668;28;20083;-71
2021/12/08 05:40:57;;;;;;;0.80;0.80;;;;;;;;;;5026273;28;20055;-72
2021/12/08 05:43:23;;;;;;;2.50;2.30;;;;;;;;;;5033091;28;20024;-71
2021/12/08 05:45:50;;;;;;;0.98;0.98;;;;;;;;;;5028362;28;20030;-70
2021/12/08 05:48:16;;;;;;;3.53;2.25;;;;;;;;;;5040035;28;20087;-68
2021/12/08 05:50:44;;;;;;;1.17;1.10;;;;;;;;;;5039994;28;20084;-70
2021/12/08 05:53:10;;;;;;;0.30;0.30;;;;;;;;;;5043391;28;20028;-70
2021/12/08 05:55:37;;;;;;;1.70;1.60;;;;;;;;;;5042894;28;20085;-71
2021/12/08 05:58:04;;;;;;;1.25;1.20;;;;;;;;;;5037898;28;20472;-69
2021/12/08 06:00:32;;;;;;;2.28;1.48;;;;;;;;;;5026357;28;20030;-69
2021/12/08 06:02:58;;;;;;;0.43;0.43;;;;;;;;;;5036789;28;20049;-68
2021/12/08 06:05:25;;;;;;;0.52;0.52;;;;;;;;;;5027652;28;20046;-69
2021/12/08 06:07:51;;;;;;;12.20;2.70;;;;;;;;;;5023047;28;20036;-69
2021/12/08 06:10:19;;;;;;;1.13;1.13;;;;;;;;;;5035064;28;20029;-70
2021/12/08 06:12:46;;;;;;;3.10;1.75;;;;;;;;;;5031928;28;20021;-69
2021/12/08 06:15:12;;;;;;;2.00;1.38;;;;;;;;;;5028958;28;20120;-70
2021/12/08 06:17:39;;;;;;;2.08;1.60;;;;;;;;;;5037897;28;20028;-70
2021/12/08 06:20:06;;;;;;;0.50;0.50;;;;;;;;;;5026950;28;20021;-70
2021/12/08 06:22:32;;;;;;;0.40;0.40;;;;;;;;;;5034278;28;20033;-71
2021/12/08 06:24:58;;;;;;;1.67;1.48;;;;;;;;;;5032063;28;20026;-70
2021/12/08 06:27:24;;;;;;;4.00;3.05;;;;;;;;;;5022316;28;20022;-70
2021/12/08 06:29:50;;;;;;;0.55;0.55;;;;;;;;;;5034307;28;20490;-70
2021/12/08 06:32:16;;;;;;;2.30;1.42;;;;;;;;;;5048968;28;20518;-70
2021/12/08 06:34:44;;;;;;;5.20;2.05;;;;;;;;;;5031375;28;20036;-69
2021/12/08 06:37:15;;;;;;;2.20;1.67;;;;;;;;;;5031567;28;20025;-69
2021/12/08 06:39:44;;;;;;;0.70;0.70;;;;;;;;;;5027230;28;20791;-71
2021/12/08 06:42:12;;;;;;;2.30;1.60;;;;;;;;;;5028937;28;20056;-70
2021/12/08 06:44:40;;;;;;;1.92;1.83;;;;;;;;;;5039263;28;20055;-70
2021/12/08 06:47:08;;;;;;;2.03;1.52;;;;;;;;;;5038007;28;20480;-70
2021/12/08 06:49:34;;;;;;;1.10;1.02;;;;;;;;;;5038908;28;20364;-70
2021/12/08 06:52:06;;;;;;;1.50;1.40;;;;;;;;;;5030538;28;20029;-70
2021/12/08 06:54:35;;;;;;;7.05;2.03;;;;;;;;;;5033808;28;20083;-70
2021/12/08 06:57:04;;;;;;;1.42;1.33;;;;;;;;;;5031595;28;20028;-70
2021/12/08 06:59:35;;;;;;;1.08;0.88;;;;;;;;;;5045047;28;20106;-70
2021/12/08 07:02:17;;;;;;;2.40;2.20;;;;;;;;;;5038090;28;20064;-71
2021/12/08 07:05:07;;;;;;;4.88;1.35;;;;;;;;;;5041037;28;20047;-70
2021/12/08 07:07:33;;;;;;;1.10;1.00;;;;;;;;;;5032649;28;20242;-70
2021/12/08 07:10:07;;;;;;;1.60;1.50;;;;;;;;;;5034461;28;20573;-70
2021/12/08 07:12:36;;;;;;;0.90;0.90;;;;;;;;;;5043967;28;20025;-70
2021/12/08 07:15:40;;;;;;;1.17;0.93;;;;;;;;;;5036753;28;20029;-70
2021/12/08 07:18:08;;;;;;;1.35;1.25;;;;;;;;;;5011431;28;20033;-70
2021/12/08 07:23:06;;;;;;;1.73;1.17;;;;;;;;;;5021358;28;20183;-69
2021/12/08 07:25:33;;;;;;;0.73;0.73;;;;;;;;;;5031965;28;20045;-70
2021/12/08 07:27:59;;;;;;;9.75;1.63;;;;;;;;;;5040956;28;20701;-70
2021/12/08 07:30:28;;;;;;;1.15;1.05;;;;;;;;;;5035946;28;20046;-70
2021/12/08 07:32:54;;;;;;;1.38;1.30;;;;;;;;;;5030875;28;20029;-71
2021/12/08 07:35:23;;;;;;;6.43;3.50;;;;;;;;;;5038013;28;20024;-71
2021/12/08 07:37:49;;;;;;;4.43;2.72;;;;;;;;;;5038447;28;20102;-70
2021/12/08 07:40:18;;;;;;;2.55;1.35;;;;;;;;;;5034178;28;20420;-70
2021/12/08 07:42:49;;;;;;;0.38;0.32;;;;;;;;;;5027179;28;20037;-70
2021/12/08 07:45:15;;;;;;;;;;;;;;;;;;5046639;28;20067;-70
2021/12/08 07:47:41;;;;;;;0.98;0.47;;;;;;;;;;5042804;28;19920;-70
2021/12/08 07:50:30;;;;;;;1.35;1.25;;;;;;;;;;5031058;28;20037;-70
2021/12/08 07:52:57;;;;;;;0.30;0.30;;;;;;;;;;5035362;28;20095;-69
2021/12/08 07:55:28;;;;;;;0.40;0.40;;;;;;;;;;5038806;28;20472;-71
2021/12/08 07:57:54;;;;;;;;;;;;;;;;;;5033344;28;20029;-69
2021/12/08 08:00:23;;;;;;;1.33;1.23;;;;;;;;;;5032923;28;20389;-69
2021/12/08 08:02:49;;;;;;;1.48;1.20;;;;;;;;;;5027925;28;20074;-72
2021/12/08 08:05:16;;;;;;;0.95;0.95;;;;;;;;;;5038931;28;20124;-72
2021/12/08 08:07:44;;;;;;;10.57;3.05;;;;;;;;;;5026941;28;20079;-70
2021/12/08 08:10:14;;;;;;;3.60;3.30;;;;;;;;;;5035443;28;20487;-70
2021/12/08 08:12:41;;;;;;;1.33;1.17;;;;;;;;;;5040329;28;20043;-72
2021/12/08 08:15:11;;;;;;;0.55;0.55;;;;;;;;;;5035812;28;20484;-72
2021/12/08 08:17:42;;;;;;;1.67;1.58;;;;;;;;;;5030797;28;20041;-69
2021/12/08 08:20:10;;;;;;;1.15;1.05;;;;;;;;;;5040433;28;20438;-68
2021/12/08 08:22:37;;;;;;;1.63;1.55;;;;;;;;;;5033020;28;20057;-69
2021/12/08 08:25:04;;;;;;;3.05;1.23;;;;;;;;;;5039633;28;20056;-70
2021/12/08 08:27:30;;;;;;;1.58;1.48;;;;;;;;;;5031979;28;20032;-69
2021/12/08 08:29:57;;;;;;;7.38;2.28;;;;;;;;;;5034310;28;20052;-70
2021/12/08 08:32:32;;;;;;;0.30;0.30;;;;;;;;;;5038443;28;20472;-70
2021/12/08 08:35:00;;;;;;;1.77;1.67;;;;;;;;;;5041923;28;20032;-71
2021/12/08 08:37:26;;;;;;;1.25;1.23;;;;;;;;;;5041034;28;20046;-70
2021/12/08 08:39:55;;;;;;;3.22;2.95;;;;;;;;;;5040871;28;20028;-69
2021/12/08 08:42:23;;;;;;;1.70;1.60;;;;;;;;;;5041244;28;20124;-71
2021/12/08 08:44:54;;;;;;;1.45;1.38;;;;;;;;;;5030360;28;20025;-70
2021/12/08 08:47:29;;;;;;;2.60;2.40;;;;;;;;;;5029707;28;20017;-69
2021/12/08 08:49:56;;;;;;;3.83;1.30;;;;;;;;;;5028581;28;20037;-68
2021/12/08 08:52:25;;;;;;;2.15;1.92;;;;;;;;;;5030722;28;20025;-69
2021/12/08 08:54:52;;;;;;;1.90;1.80;;;;;;;;;;5021647;28;20496;-68
2021/12/08 08:57:29;;;;;;;0.40;0.40;;;;;;;;;;5032479;28;20057;-68
2021/12/08 08:59:59;;;;;;;2.05;1.77;;;;;;;;;;5036331;28;20112;-68
2021/12/08 09:02:30;;;;;;;1.30;1.20;;;;;;;;;;5035743;28;20021;-69
2021/12/08 09:05:02;;;;;;;1.63;1.52;;;;;;;;;;5034982;28;20032;-69
2021/12/08 09:07:36;;;;;;;3.50;1.45;;;;;;;;;;5039338;28;20025;-69
2021/12/08 09:10:07;;;;;;;1.33;1.27;;;;;;;;;;5026155;28;20040;-70
2021/12/08 09:12:35;;;;;;;1.95;1.35;;;;;;;;;;5036781;28;20067;-70
2021/12/08 09:15:20;;;;;;;3.78;2.63;;;;;;;;;;5035274;28;20563;-70
2021/12/08 09:17:48;;;;;;;3.70;1.88;;;;;;;;;;5030378;28;20444;-70
2021/12/08 09:20:14;;;;;;;2.08;1.98;;;;;;;;;;5026271;28;20072;-69
2021/12/08 09:22:43;;;;;;;2.67;2.33;;;;;;;;;;5045634;28;20541;-69
2021/12/08 09:25:13;;;;;;;3.65;2.20;;;;;;;;;;5033491;28;20037;-70
2021/12/08 09:27:41;;;;;;;3.60;2.90;;;;;;;;;;5040521;28;20116;-69
2021/12/08 09:30:11;;;;;;;4.38;2.63;;;;;;;;;;5040775;28;20107;-69
2021/12/08 09:32:42;;;;;;;0.80;0.80;;;;;;;;;;5027682;28;20036;-69
2021/12/08 09:35:17;;;;;;;2.28;1.52;;;;;;;;;;5029606;28;20071;-70
2021/12/08 09:37:46;;;;;;;1.33;1.23;;;;;;;;;;5030688;28;20025;-69
2021/12/08 09:40:33;;;;;;;2.95;1.58;;;;;;;;;;5029166;28;20036;-70
2021/12/08 09:43:05;;;;;;;0.60;0.60;;;;;;;;;;5026249;28;20040;-69
2021/12/08 09:45:32;;;;;;;3.83;3.00;;;;;;;;;;5031913;28;20033;-70
2021/12/08 09:48:02;;;;;;;3.20;2.17;;;;;;;;;;5026097;28;20112;-69
2021/12/08 09:50:28;;;;;;;1.65;0.95;;;;;;;;;;5039000;28;20086;-69
2021/12/08 09:52:54;;;;;;;1.00;0.93;;;;;;;;;;5028603;28;20628;-69
2021/12/08 09:55:20;;;;;;;0.32;0.32;;;;;;;;;;5025141;28;20349;-69
2021/12/08 09:57:47;;;;;;;0.63;0.63;;;;;;;;;;5027895;28;20388;-70
2021/12/08 10:00:25;;;;;;;3.13;2.25;;;;;;;;;;5031103;28;20063;-70
2021/12/08 10:02:57;;;;;;;2.80;2.28;;;;;;;;;;5024165;28;20353;-69
2021/12/08 10:05:34;;;;;;;3.95;1.98;;;;;;;;;;5018701;28;20026;-70
2021/12/08 10:08:00;;;;;;;2.47;1.65;;;;;;;;;;5025171;28;20029;-69
2021/12/08 10:10:26;;;;;;;0.73;0.73;;;;;;;;;;5036589;28;20079;-70
2021/12/08 10:12:52;;;;;;;1.05;0.98;;;;;;;;;;5022985;28;20091;-70
2021/12/08 10:15:19;;;;;;;4.75;1.75;;;;;;;;;;5025962;28;20025;-68
2021/12/08 10:17:46;;;;;;;1.08;1.08;;;;;;;;;;5025158;28;20036;-69
2021/12/08 10:20:21;;;;;;;1.52;1.30;;;;;;;;;;5030489;28;20501;-69
2021/12/08 10:22:48;;;;;;;0.75;0.75;;;;;;;;;;5029629;28;20069;-69
2021/12/08 10:25:17;;;;;;;5.43;2.17;;;;;;;;;;5032624;28;20116;-69
2021/12/08 10:28:01;;;;;;;4.28;2.08;;;;;;;;;;5019265;28;20140;-69
2021/12/08 10:30:27;;;;;;;4.38;1.90;;;;;;;;;;5021836;28;20439;-69
2021/12/08 10:32:54;;;;;;;0.65;0.65;;;;;;;;;;5041677;28;20116;-69
2021/12/08 10:35:41;;;;;;;1.35;1.15;;;;;;;;;;5030289;28;20022;-69
2021/12/08 10:38:07;;;;;;;0.73;0.70;;;;;;;;;;5022587;28;20033;-70
2021/12/08 10:40:33;;;;;;;5.15;3.15;;;;;;;;;;5026646;28;20032;-68
2021/12/08 10:43:11;;;;;;;1.52;1.42;;;;;;;;;;5026836;28;20052;-68
2021/12/08 10:45:37;;;;;;;2.00;1.90;;;;;;;;;;5028683;28;20487;-69
2021/12/08 10:48:05;;;;;;;2.42;1.77;;;;;;;;;;5028342;28;20529;-69
2021/12/08 10:56:33;;;;;;;2.88;2.63;;;;;;;;;;5041316;28;20028;-68
2021/12/08 10:58:59;;;;;;;6.47;2.15;;;;;;;;;;5026576;28;20406;-70
2021/12/08 11:01:26;;;;;;;2.25;1.38;;;;;;;;;;5026029;28;20182;-68
2021/12/08 11:04:03;;;;;;;6.15;2.25;;;;;;;;;;5027732;28;20025;-69
2021/12/08 11:06:31;;;;;;;4.85;1.60;;;;;;;;;;5035639;28;20121;-69
2021/12/08 11:08:57;;;;;;;2.55;2.40;;;;;;;;;;5030186;28;20116;-69
2021/12/08 11:11:29;;;;;;;0.68;0.68;;;;;;;;;;5028785;28;20112;-70
2021/12/08 11:13:59;;;;;;;1.05;0.98;;;;;;;;;;5038001;28;20029;-69
2021/12/08 11:16:30;;;;;;;4.13;2.85;;;;;;;;;;5027431;28;20480;-70
2021/12/08 11:19:01;;;;;;;3.15;2.25;;;;;;;;;;5025639;28;20040;-69
2021/12/08 11:21:35;;;;;;;0.85;0.68;;;;;;;;;;5027415;28;20747;-69
2021/12/08 11:24:02;;;;;;;0.70;0.70;;;;;;;;;;5042399;28;20116;-69
2021/12/08 11:26:33;;;;;;;1.23;1.23;;;;;;;;;;5036630;28;20025;-70
2021/12/08 11:29:05;;;;;;;1.60;1.50;;;;;;;;;;5029412;28;20025;-69
2021/12/08 11:31:43;;;;;;;2.90;2.03;;;;;;;;;;5039056;28;20061;-69
2021/12/08 11:34:23;;;;;;;1.17;1.08;;;;;;;;;;5030083;28;20036;-69
2021/12/08 11:36:54;;;;;;;0.85;0.85;;;;;;;;;;5036870;28;20029;-69
2021/12/08 11:39:22;;;;;;;3.42;3.13;;;;;;;;;;5033501;28;20534;-69
2021/12/08 11:41:49;;;;;;;1.73;1.63;;;;;;;;;;5032533;28;20025;-69
2021/12/08 11:44:25;;;;;;;3.92;2.35;;;;;;;;;;5028787;28;20508;-69
2021/12/08 11:46:53;;;;;;;2.05;1.90;;;;;;;;;;5047383;28;20077;-69
2021/12/08 11:49:20;;;;;;;2.88;1.73;;;;;;;;;;5034000;28;20099;-69
2021/12/08 11:51:45;;;;;;;5.30;1.42;;;;;;;;;;5031525;28;20464;-69
2021/12/08 11:54:32;;;;;;;1.13;1.08;;;;;;;;;;5046235;28;20036;-69
2021/12/08 11:57:13;;;;;;;4.00;2.55;;;;;;;;;;5046443;28;20024;-70
2021/12/08 11:59:57;;;;;;;1.60;1.42;;;;;;;;;;5034676;28;20053;-69
2021/12/08 12:02:25;;;;;;;0.80;0.43;;;;;;;;;;5021828;28;20037;-69
2021/12/08 12:04:52;;;;;;;2.08;1.88;;;;;;;;;;5033295;28;20096;-69
2021/12/08 12:07:18;;;;;;;6.88;2.17;;;;;;;;;;5031830;28;20102;-68
2021/12/08 12:09:44;;;;;;;6.90;3.78;;;;;;;;;;5026904;28;20500;-68
2021/12/08 12:12:11;;;;;;;1.45;1.05;;;;;;;;;;5025356;28;20057;-69
2021/12/08 12:14:37;;;;;;;1.75;1.65;;;;;;;;;;5026293;28;20108;-68
2021/12/08 12:17:03;;;;;;;6.32;3.70;;;;;;;;;;5026764;28;20105;-69
2021/12/08 12:19:32;;;;;;;1.58;1.48;;;;;;;;;;5031816;28;20022;-69
2021/12/08 12:22:13;;;;;;;2.47;2.33;;;;;;;;;;5031977;28;20075;-70
2021/12/08 12:24:53;;;;;;;2.80;2.60;;;;;;;;;;5036527;28;20506;-69
2021/12/08 12:27:54;;;;;;;4.90;2.47;;;;;;;;;;5031672;28;20589;-69
2021/12/08 12:30:39;;;;;;;0.88;0.85;;;;;;;;;;5009386;28;20033;-68
2021/12/08 12:33:14;;;;;;;1.95;1.75;;;;;;;;;;5031919;28;20075;-68
2021/12/08 12:35:46;;;;;;;0.88;0.88;;;;;;;;;;5033026;28;20492;-69
2021/12/08 12:38:13;;;;;;;1.20;1.08;;;;;;;;;;5025988;28;20033;-68
2021/12/08 12:40:41;;;;;;;0.93;0.93;;;;;;;;;;5028104;28;20038;-68
2021/12/08 12:43:07;;;;;;;2.45;2.25;;;;;;;;;;5031923;28;20411;-69
2021/12/08 12:45:35;;;;;;;2.65;2.00;;;;;;;;;;5029782;28;20029;-69
2021/12/08 12:48:20;;;;;;;4.50;2.20;;;;;;;;;;5030624;28;21328;-69
2021/12/08 12:50:55;;;;;;;2.15;2.03;;;;;;;;;;5024472;28;20064;-69
2021/12/08 12:53:40;;;;;;;1.33;1.23;;;;;;;;;;5037665;28;20108;-69
2021/12/08 12:56:26;;;;;;;3.05;1.60;;;;;;;;;;5027133;28;20025;-71
2021/12/08 12:58:53;;;;;;;9.50;2.60;;;;;;;;;;5023307;28;20083;-69
2021/12/08 13:01:27;;;;;;;6.38;3.10;;;;;;;;;;5027053;28;20021;-69
2021/12/08 13:04:04;;;;;;;3.15;2.60;;;;;;;;;;5024099;28;20101;-69
2021/12/08 13:06:48;;;;;;;2.70;2.47;;;;;;;;;;5026284;28;20326;-70
2021/12/08 13:09:35;;;;;;;12.75;1.30;;;;;;;;;;5025649;28;20057;-70
2021/12/08 13:12:11;;;;;;;4.30;2.35;;;;;;;;;;5036200;28;20402;-70
2021/12/08 13:14:37;;;;;;;8.80;2.38;;;;;;;;;;5041785;28;20107;-70
2021/12/08 13:17:08;;;;;;;4.05;2.20;;;;;;;;;;5028179;28;20828;-68
2021/12/08 13:19:47;;;;;;;1.67;1.58;;;;;;;;;;5021561;28;20040;-68
2021/12/08 13:22:32;;;;;;;3.15;1.30;;;;;;;;;;5032511;28;20033;-70
2021/12/08 13:25:01;;;;;;;0.80;0.80;;;;;;;;;;5035460;28;20063;-69
2021/12/08 13:27:29;;;;;;;0.85;0.85;;;;;;;;;;5025958;28;20021;-71
2021/12/08 13:30:09;;;;;;;0.60;0.60;;;;;;;;;;5030554;28;20055;-70
2021/12/08 13:32:45;;;;;;;1.42;1.33;;;;;;;;;;5030833;28;20026;-69
2021/12/08 13:35:11;;;;;;;0.73;0.73;;;;;;;;;;5030147;28;20112;-69
2021/12/08 13:37:37;;;;;;;1.95;1.52;;;;;;;;;;5034798;28;20115;-70
2021/12/08 13:40:08;;;;;;;12.80;2.75;;;;;;;;;;5027836;28;20529;-70
2021/12/08 13:42:46;;;;;;;5.20;1.70;;;;;;;;;;5029313;28;20040;-69
2021/12/08 13:45:14;;;;;;;3.30;2.85;;;;;;;;;;5023428;28;20083;-70
2021/12/08 13:47:47;;;;;;;0.70;0.68;;;;;;;;;;5023869;28;20044;-69
2021/12/08 13:50:16;;;;;;;1.45;1.25;;;;;;;;;;5022015;28;20583;-69
2021/12/08 13:52:43;;;;;;;1.13;1.13;;;;;;;;;;5023540;28;20057;-70
2021/12/08 13:55:09;;;;;;;2.10;1.67;;;;;;;;;;5037981;28;20075;-69
2021/12/08 13:57:39;;;;;;;1.88;1.45;;;;;;;;;;5035947;28;20472;-70
2021/12/08 14:00:12;;;;;;;0.85;0.85;;;;;;;;;;5036706;28;20041;-71
2021/12/08 14:02:37;;;;;;;1.05;0.95;;;;;;;;;;5020603;28;20061;-71
2021/12/08 14:05:03;;;;;;;1.40;1.30;;;;;;;;;;5028970;28;20052;-73
2021/12/08 14:07:30;;;;;;;1.55;1.45;;;;;;;;;;5028192;28;20022;-69
2021/12/08 14:09:57;;;;;;;3.60;2.58;;;;;;;;;;5032849;28;20081;-69
2021/12/08 14:12:23;;;;;;;5.13;3.00;;;;;;;;;;5035658;28;20033;-69
2021/12/08 14:14:58;;;;;;;3.15;2.85;;;;;;;;;;5029681;28;20021;-72
2021/12/08 14:17:29;;;;;;;2.75;1.20;;;;;;;;;;5027834;28;20100;-70
2021/12/08 14:19:55;;;;;;;0.75;0.73;;;;;;;;;;5026980;28;20029;-70
2021/12/08 14:22:21;;;;;;;1.30;1.27;;;;;;;;;;5026553;28;20017;-71
2021/12/08 14:24:56;;;;;;;35.03;2.85;;;;;;;;;;5036207;28;20055;-71
2021/12/08 14:27:29;;;;;;;1.00;0.82;;;;;;;;;;5037281;28;20029;-69
2021/12/08 14:29:57;;;;;;;1.55;1.45;;;;;;;;;;5031598;28;20484;-70
2021/12/08 14:32:22;;;;;;;0.77;0.77;;;;;;;;;;5025471;28;20042;-70
2021/12/08 14:34:48;;;;;;;2.67;1.35;;;;;;;;;;5027777;28;20029;-72
2021/12/08 14:37:15;;;;;;;3.17;2.35;;;;;;;;;;5026658;28;20380;-71
2021/12/08 14:39:50;;;;;;;1.63;1.52;;;;;;;;;;5031490;28;20029;-71
2021/12/08 14:42:21;;;;;;;7.07;4.85;;;;;;;;;;5033114;28;20049;-75
2021/12/08 14:44:51;;;;;;;3.40;1.13;;;;;;;;;;5033776;28;20044;-75
2021/12/08 14:47:24;;;;;;;1.25;1.25;;;;;;;;;;5030966;28;20128;-72
2021/12/08 14:49:54;;;;;;;4.55;1.25;;;;;;;;;;5035180;28;20045;-73
2021/12/08 14:52:20;;;;;;;10.40;4.50;;;;;;;;;;5030526;28;20033;-73
2021/12/08 14:54:51;;;;;;;2.65;2.03;;;;;;;;;;5024358;28;20025;-74
2021/12/08 14:57:19;;;;;;;2.13;1.90;;;;;;;;;;5033735;28;20029;-74
2021/12/08 14:59:50;;;;;;;0.43;0.43;;;;;;;;;;5029246;28;20719;-73
2021/12/08 15:02:21;;;;;;;4.70;2.97;;;;;;;;;;5029072;28;20086;-74
2021/12/08 15:04:48;;;;;;;1.10;1.10;;;;;;;;;;5033969;28;20116;-73
2021/12/08 15:07:17;;;;;;;3.63;1.48;;;;;;;;;;5039432;28;20028;-75
2021/12/08 15:09:55;;;;;;;10.48;2.53;;;;;;;;;;5028321;28;20444;-75
2021/12/08 15:12:20;;;;;;;2.15;1.95;;;;;;;;;;5031741;28;20067;-73
2021/12/08 15:14:46;;;;;;;22.65;2.15;;;;;;;;;;5037815;28;20033;-73
2021/12/08 15:17:12;;;;;;;1.13;1.05;;;;;;;;;;5030895;28;20627;-73
2021/12/08 15:19:48;;;;;;;1.23;1.15;;;;;;;;;;5028686;28;20437;-73
2021/12/08 15:22:16;;;;;;;2.90;0.98;;;;;;;;;;5031842;28;20041;-73
2021/12/08 15:24:41;;;;;;;5.75;2.28;;;;;;;;;;5034647;28;20084;-73
2021/12/08 15:27:14;;;;;;;1.75;1.63;;;;;;;;;;5032453;28;20056;-73
2021/12/08 15:29:44;;;;;;;1.95;1.80;;;;;;;;;;5038076;28;20059;-73
2021/12/08 15:32:14;;;;;;;3.00;2.75;;;;;;;;;;5038151;28;20025;-74
2021/12/08 15:34:40;;;;;;;7.30;4.07;;;;;;;;;;5029270;28;20034;-73
2021/12/08 15:37:07;;;;;;;1.17;1.15;;;;;;;;;;5021614;28;20037;-73